sensor_id;sensor_type;location;lat;lon;timestamp;P1;durP1;ratioP1;P2;durP2;ratioP2
20855;SDS011;63058;49.424;8.420;2024-01-30T00:01:24;11.40;;;8.70;;
20855;SDS011;63058;49.424;8.420;2024-01-30T00:03:49;11.27;;;8.33;;
20855;SDS011;63058;49.424;8.420;2024-01-30T00:06:18;13.67;;;8.77;;
20855;SDS011;63058;49.424;8.420;2024-01-30T00:08:46;12.93;;;8.37;;
20855;SDS011;63058;49.424;8.420;2024-01-30T00:11:13;12.23;;;8.50;;
20855;SDS011;63058;49.424;8.420;2024-01-30T00:13:39;10.60;;;7.70;;
20855;SDS011;63058;49.424;8.420;2024-01-30T00:16:05;11.27;;;8.37;;
20855;SDS011;63058;49.424;8.420;2024-01-30T00:18:31;10.73;;;8.07;;
20855;SDS011;63058;49.424;8.420;2024-01-30T00:20:57;11.87;;;7.63;;
20855;SDS011;63058;49.424;8.420;2024-01-30T00:23:22;10.97;;;7.60;;
20855;SDS011;63058;49.424;8.420;2024-01-30T00:25:48;10.87;;;8.10;;
20855;SDS011;63058;49.424;8.420;2024-01-30T00:28:13;10.20;;;7.63;;
20855;SDS011;63058;49.424;8.420;2024-01-30T00:30:39;10.87;;;7.70;;
20855;SDS011;63058;49.424;8.420;2024-01-30T00:33:04;11.27;;;7.90;;
20855;SDS011;63058;49.424;8.420;2024-01-30T00:35:30;8.67;;;6.90;;
20855;SDS011;63058;49.424;8.420;2024-01-30T00:37:56;10.10;;;7.30;;
20855;SDS011;63058;49.424;8.420;2024-01-30T00:40:22;10.37;;;7.07;;
20855;SDS011;63058;49.424;8.420;2024-01-30T00:42:47;12.43;;;7.67;;
20855;SDS011;63058;49.424;8.420;2024-01-30T00:45:13;10.27;;;7.23;;
20855;SDS011;63058;49.424;8.420;2024-01-30T00:47:40;11.90;;;7.10;;
20855;SDS011;63058;49.424;8.420;2024-01-30T00:50:05;11.37;;;7.30;;
20855;SDS011;63058;49.424;8.420;2024-01-30T00:52:31;9.40;;;6.87;;
20855;SDS011;63058;49.424;8.420;2024-01-30T00:54:58;10.27;;;7.23;;
20855;SDS011;63058;49.424;8.420;2024-01-30T00:57:24;10.13;;;7.60;;
20855;SDS011;63058;49.424;8.420;2024-01-30T00:59:49;8.97;;;7.00;;
20855;SDS011;63058;49.424;8.420;2024-01-30T01:02:15;10.93;;;7.43;;
20855;SDS011;63058;49.424;8.420;2024-01-30T01:04:42;11.40;;;7.20;;
20855;SDS011;63058;49.424;8.420;2024-01-30T01:07:09;9.63;;;7.33;;
20855;SDS011;63058;49.424;8.420;2024-01-30T01:09:35;9.03;;;6.50;;
20855;SDS011;63058;49.424;8.420;2024-01-30T01:12:01;8.10;;;6.57;;
20855;SDS011;63058;49.424;8.420;2024-01-30T01:14:26;8.67;;;6.87;;
20855;SDS011;63058;49.424;8.420;2024-01-30T01:16:52;8.20;;;6.27;;
20855;SDS011;63058;49.424;8.420;2024-01-30T01:19:18;9.63;;;6.87;;
20855;SDS011;63058;49.424;8.420;2024-01-30T01:21:43;9.40;;;7.03;;
20855;SDS011;63058;49.424;8.420;2024-01-30T01:24:09;8.97;;;6.90;;
20855;SDS011;63058;49.424;8.420;2024-01-30T01:26:34;7.93;;;6.30;;
20855;SDS011;63058;49.424;8.420;2024-01-30T01:29:00;9.23;;;6.50;;
20855;SDS011;63058;49.424;8.420;2024-01-30T01:31:25;8.10;;;6.27;;
20855;SDS011;63058;49.424;8.420;2024-01-30T01:33:54;8.37;;;6.63;;
20855;SDS011;63058;49.424;8.420;2024-01-30T01:36:20;12.03;;;6.73;;
20855;SDS011;63058;49.424;8.420;2024-01-30T01:38:45;8.47;;;6.70;;
20855;SDS011;63058;49.424;8.420;2024-01-30T01:41:11;8.03;;;6.43;;
20855;SDS011;63058;49.424;8.420;2024-01-30T01:43:37;11.23;;;6.80;;
20855;SDS011;63058;49.424;8.420;2024-01-30T01:46:04;8.40;;;6.57;;
20855;SDS011;63058;49.424;8.420;2024-01-30T01:48:30;7.30;;;5.70;;
20855;SDS011;63058;49.424;8.420;2024-01-30T01:50:55;7.97;;;6.17;;
20855;SDS011;63058;49.424;8.420;2024-01-30T01:53:21;9.67;;;6.53;;
20855;SDS011;63058;49.424;8.420;2024-01-30T01:55:47;7.27;;;5.63;;
20855;SDS011;63058;49.424;8.420;2024-01-30T01:58:13;9.33;;;6.73;;
20855;SDS011;63058;49.424;8.420;2024-01-30T02:00:39;8.20;;;6.23;;
20855;SDS011;63058;49.424;8.420;2024-01-30T02:03:06;9.03;;;6.73;;
20855;SDS011;63058;49.424;8.420;2024-01-30T02:05:34;8.20;;;6.03;;
20855;SDS011;63058;49.424;8.420;2024-01-30T02:08:01;8.27;;;6.57;;
20855;SDS011;63058;49.424;8.420;2024-01-30T02:10:26;8.33;;;6.57;;
20855;SDS011;63058;49.424;8.420;2024-01-30T02:12:52;8.53;;;6.80;;
20855;SDS011;63058;49.424;8.420;2024-01-30T02:15:18;8.17;;;6.30;;
20855;SDS011;63058;49.424;8.420;2024-01-30T02:17:43;7.90;;;5.90;;
20855;SDS011;63058;49.424;8.420;2024-01-30T02:20:09;7.80;;;5.77;;
20855;SDS011;63058;49.424;8.420;2024-01-30T02:22:35;7.70;;;6.40;;
20855;SDS011;63058;49.424;8.420;2024-01-30T02:25:02;8.23;;;6.07;;
20855;SDS011;63058;49.424;8.420;2024-01-30T02:27:28;7.90;;;6.13;;
20855;SDS011;63058;49.424;8.420;2024-01-30T02:29:53;9.17;;;6.37;;
20855;SDS011;63058;49.424;8.420;2024-01-30T02:32:19;7.87;;;6.10;;
20855;SDS011;63058;49.424;8.420;2024-01-30T02:34:45;9.73;;;6.63;;
20855;SDS011;63058;49.424;8.420;2024-01-30T02:37:10;9.50;;;6.07;;
20855;SDS011;63058;49.424;8.420;2024-01-30T02:39:36;8.73;;;6.13;;
20855;SDS011;63058;49.424;8.420;2024-01-30T02:42:01;10.60;;;6.50;;
20855;SDS011;63058;49.424;8.420;2024-01-30T02:44:27;7.93;;;6.17;;
20855;SDS011;63058;49.424;8.420;2024-01-30T02:46:52;9.30;;;5.90;;
20855;SDS011;63058;49.424;8.420;2024-01-30T02:49:19;7.17;;;5.77;;
20855;SDS011;63058;49.424;8.420;2024-01-30T02:51:45;7.67;;;5.90;;
20855;SDS011;63058;49.424;8.420;2024-01-30T02:54:10;8.17;;;5.83;;
20855;SDS011;63058;49.424;8.420;2024-01-30T02:56:36;8.13;;;6.30;;
20855;SDS011;63058;49.424;8.420;2024-01-30T02:59:01;8.20;;;6.17;;
20855;SDS011;63058;49.424;8.420;2024-01-30T03:01:27;8.33;;;6.53;;
20855;SDS011;63058;49.424;8.420;2024-01-30T03:03:52;7.77;;;6.07;;
20855;SDS011;63058;49.424;8.420;2024-01-30T03:06:18;9.93;;;5.43;;
20855;SDS011;63058;49.424;8.420;2024-01-30T03:08:45;9.40;;;6.00;;
20855;SDS011;63058;49.424;8.420;2024-01-30T03:11:10;7.70;;;6.00;;
20855;SDS011;63058;49.424;8.420;2024-01-30T03:13:36;8.37;;;5.87;;
20855;SDS011;63058;49.424;8.420;2024-01-30T03:16:02;10.83;;;6.27;;
20855;SDS011;63058;49.424;8.420;2024-01-30T03:18:27;8.27;;;6.03;;
20855;SDS011;63058;49.424;8.420;2024-01-30T03:20:53;8.13;;;6.13;;
20855;SDS011;63058;49.424;8.420;2024-01-30T03:23:18;8.33;;;5.97;;
20855;SDS011;63058;49.424;8.420;2024-01-30T03:25:44;9.07;;;6.43;;
20855;SDS011;63058;49.424;8.420;2024-01-30T03:28:10;9.10;;;6.40;;
20855;SDS011;63058;49.424;8.420;2024-01-30T03:30:35;9.13;;;6.50;;
20855;SDS011;63058;49.424;8.420;2024-01-30T03:33:01;7.40;;;5.77;;
20855;SDS011;63058;49.424;8.420;2024-01-30T03:35:27;7.67;;;5.70;;
20855;SDS011;63058;49.424;8.420;2024-01-30T03:37:52;7.57;;;6.00;;
20855;SDS011;63058;49.424;8.420;2024-01-30T03:40:27;8.93;;;6.10;;
20855;SDS011;63058;49.424;8.420;2024-01-30T03:42:53;7.13;;;5.83;;
20855;SDS011;63058;49.424;8.420;2024-01-30T03:45:18;8.20;;;6.00;;
20855;SDS011;63058;49.424;8.420;2024-01-30T03:47:44;8.03;;;6.03;;
20855;SDS011;63058;49.424;8.420;2024-01-30T03:50:10;8.00;;;6.30;;
20855;SDS011;63058;49.424;8.420;2024-01-30T03:52:35;8.10;;;6.03;;
20855;SDS011;63058;49.424;8.420;2024-01-30T03:55:01;8.17;;;6.30;;
20855;SDS011;63058;49.424;8.420;2024-01-30T03:57:27;7.40;;;6.10;;
20855;SDS011;63058;49.424;8.420;2024-01-30T03:59:52;10.47;;;6.33;;
20855;SDS011;63058;49.424;8.420;2024-01-30T04:02:18;7.90;;;6.00;;
20855;SDS011;63058;49.424;8.420;2024-01-30T04:04:44;8.67;;;6.10;;
20855;SDS011;63058;49.424;8.420;2024-01-30T04:07:09;7.37;;;5.77;;
20855;SDS011;63058;49.424;8.420;2024-01-30T04:09:35;8.87;;;6.20;;
20855;SDS011;63058;49.424;8.420;2024-01-30T04:12:03;8.23;;;6.13;;
20855;SDS011;63058;49.424;8.420;2024-01-30T04:14:28;8.70;;;6.43;;
20855;SDS011;63058;49.424;8.420;2024-01-30T04:16:54;7.20;;;6.20;;
20855;SDS011;63058;49.424;8.420;2024-01-30T04:19:20;7.73;;;6.07;;
20855;SDS011;63058;49.424;8.420;2024-01-30T04:21:45;8.30;;;6.13;;
20855;SDS011;63058;49.424;8.420;2024-01-30T04:24:11;8.13;;;6.03;;
20855;SDS011;63058;49.424;8.420;2024-01-30T04:26:36;8.13;;;6.37;;
20855;SDS011;63058;49.424;8.420;2024-01-30T04:29:02;7.43;;;6.10;;
20855;SDS011;63058;49.424;8.420;2024-01-30T04:31:27;7.67;;;5.83;;
20855;SDS011;63058;49.424;8.420;2024-01-30T04:33:53;8.17;;;6.10;;
20855;SDS011;63058;49.424;8.420;2024-01-30T04:36:18;8.77;;;6.20;;
20855;SDS011;63058;49.424;8.420;2024-01-30T04:38:44;8.80;;;6.20;;
20855;SDS011;63058;49.424;8.420;2024-01-30T04:41:10;9.23;;;6.03;;
20855;SDS011;63058;49.424;8.420;2024-01-30T04:43:35;8.73;;;6.70;;
20855;SDS011;63058;49.424;8.420;2024-01-30T04:46:01;7.90;;;5.97;;
20855;SDS011;63058;49.424;8.420;2024-01-30T04:48:26;9.63;;;6.33;;
20855;SDS011;63058;49.424;8.420;2024-01-30T04:50:52;8.23;;;6.10;;
20855;SDS011;63058;49.424;8.420;2024-01-30T04:53:18;6.23;;;5.37;;
20855;SDS011;63058;49.424;8.420;2024-01-30T04:55:44;6.87;;;5.63;;
20855;SDS011;63058;49.424;8.420;2024-01-30T04:58:09;7.93;;;6.10;;
20855;SDS011;63058;49.424;8.420;2024-01-30T05:00:35;8.37;;;5.93;;
20855;SDS011;63058;49.424;8.420;2024-01-30T05:03:00;8.43;;;5.50;;
20855;SDS011;63058;49.424;8.420;2024-01-30T05:05:26;8.10;;;6.53;;
20855;SDS011;63058;49.424;8.420;2024-01-30T05:07:52;8.17;;;5.83;;
20855;SDS011;63058;49.424;8.420;2024-01-30T05:10:18;7.43;;;6.07;;
20855;SDS011;63058;49.424;8.420;2024-01-30T05:12:44;7.87;;;6.03;;
20855;SDS011;63058;49.424;8.420;2024-01-30T05:15:09;6.13;;;5.37;;
20855;SDS011;63058;49.424;8.420;2024-01-30T05:17:35;9.67;;;6.67;;
20855;SDS011;63058;49.424;8.420;2024-01-30T05:20:00;8.43;;;6.27;;
20855;SDS011;63058;49.424;8.420;2024-01-30T05:22:26;8.40;;;6.03;;
20855;SDS011;63058;49.424;8.420;2024-01-30T05:24:53;7.27;;;6.00;;
20855;SDS011;63058;49.424;8.420;2024-01-30T05:27:18;10.10;;;6.40;;
20855;SDS011;63058;49.424;8.420;2024-01-30T05:29:47;7.60;;;6.33;;
20855;SDS011;63058;49.424;8.420;2024-01-30T05:32:13;8.53;;;6.07;;
20855;SDS011;63058;49.424;8.420;2024-01-30T05:34:38;8.80;;;6.60;;
20855;SDS011;63058;49.424;8.420;2024-01-30T05:37:04;8.93;;;6.63;;
20855;SDS011;63058;49.424;8.420;2024-01-30T05:39:29;8.67;;;6.40;;
20855;SDS011;63058;49.424;8.420;2024-01-30T05:41:57;8.43;;;6.60;;
20855;SDS011;63058;49.424;8.420;2024-01-30T05:44:23;8.73;;;6.30;;
20855;SDS011;63058;49.424;8.420;2024-01-30T05:46:49;8.57;;;6.47;;
20855;SDS011;63058;49.424;8.420;2024-01-30T05:49:15;8.30;;;6.50;;
20855;SDS011;63058;49.424;8.420;2024-01-30T05:51:40;9.87;;;6.87;;
20855;SDS011;63058;49.424;8.420;2024-01-30T05:54:06;8.90;;;6.77;;
20855;SDS011;63058;49.424;8.420;2024-01-30T05:56:31;8.70;;;7.13;;
20855;SDS011;63058;49.424;8.420;2024-01-30T05:58:59;7.87;;;6.53;;
20855;SDS011;63058;49.424;8.420;2024-01-30T06:01:25;9.00;;;6.93;;
20855;SDS011;63058;49.424;8.420;2024-01-30T06:03:50;11.87;;;7.63;;
20855;SDS011;63058;49.424;8.420;2024-01-30T06:06:16;11.07;;;6.93;;
20855;SDS011;63058;49.424;8.420;2024-01-30T06:08:42;9.53;;;6.93;;
20855;SDS011;63058;49.424;8.420;2024-01-30T06:11:09;9.70;;;6.77;;
20855;SDS011;63058;49.424;8.420;2024-01-30T06:13:36;10.07;;;7.40;;
20855;SDS011;63058;49.424;8.420;2024-01-30T06:16:01;9.47;;;7.27;;
20855;SDS011;63058;49.424;8.420;2024-01-30T06:18:28;13.10;;;7.47;;
20855;SDS011;63058;49.424;8.420;2024-01-30T06:20:56;9.57;;;7.17;;
20855;SDS011;63058;49.424;8.420;2024-01-30T06:23:22;9.10;;;6.77;;
20855;SDS011;63058;49.424;8.420;2024-01-30T06:25:49;8.40;;;6.67;;
20855;SDS011;63058;49.424;8.420;2024-01-30T06:28:14;11.37;;;7.17;;
20855;SDS011;63058;49.424;8.420;2024-01-30T06:30:45;8.60;;;6.67;;
20855;SDS011;63058;49.424;8.420;2024-01-30T06:33:17;9.87;;;6.73;;
20855;SDS011;63058;49.424;8.420;2024-01-30T06:35:53;9.07;;;7.20;;
20855;SDS011;63058;49.424;8.420;2024-01-30T06:41:28;9.60;;;7.00;;
20855;SDS011;63058;49.424;8.420;2024-01-30T06:44:29;10.00;;;7.20;;
20855;SDS011;63058;49.424;8.420;2024-01-30T06:47:41;10.60;;;7.10;;
20855;SDS011;63058;49.424;8.420;2024-01-30T07:12:27;8.50;;;6.17;;
20855;SDS011;63058;49.424;8.420;2024-01-30T07:31:21;9.80;;;7.50;;
20855;SDS011;63058;49.424;8.420;2024-01-30T07:50:20;11.73;;;8.00;;
20855;SDS011;63058;49.424;8.420;2024-01-30T08:10:08;8.37;;;6.53;;
20855;SDS011;63058;49.424;8.420;2024-01-30T08:13:33;8.67;;;6.50;;
20855;SDS011;63058;49.424;8.420;2024-01-30T08:49:30;9.17;;;7.17;;
20855;SDS011;63058;49.424;8.420;2024-01-30T09:51:40;10.23;;;8.25;;
20855;SDS011;63058;49.424;8.420;2024-01-30T10:34:19;12.80;;;9.95;;
20855;SDS011;63058;49.424;8.420;2024-01-30T10:40:59;11.75;;;9.18;;
20855;SDS011;63058;49.424;8.420;2024-01-30T10:47:52;13.20;;;9.32;;
20855;SDS011;63058;49.424;8.420;2024-01-30T11:26:58;11.45;;;9.13;;
20855;SDS011;63058;49.424;8.420;2024-01-30T11:29:24;10.50;;;8.48;;
20855;SDS011;63058;49.424;8.420;2024-01-30T11:31:52;11.05;;;8.90;;
20855;SDS011;63058;49.424;8.420;2024-01-30T11:34:22;12.75;;;8.80;;
20855;SDS011;63058;49.424;8.420;2024-01-30T11:36:51;10.93;;;8.40;;
20855;SDS011;63058;49.424;8.420;2024-01-30T11:39:23;11.60;;;9.00;;
20855;SDS011;63058;49.424;8.420;2024-01-30T11:41:51;11.43;;;8.88;;
20855;SDS011;63058;49.424;8.420;2024-01-30T11:44:18;11.40;;;8.60;;
20855;SDS011;63058;49.424;8.420;2024-01-30T11:46:45;11.02;;;8.98;;
20855;SDS011;63058;49.424;8.420;2024-01-30T11:49:12;11.65;;;8.95;;
20855;SDS011;63058;49.424;8.420;2024-01-30T11:51:38;11.98;;;8.57;;
20855;SDS011;63058;49.424;8.420;2024-01-30T11:54:04;10.80;;;8.60;;
20855;SDS011;63058;49.424;8.420;2024-01-30T11:56:29;10.65;;;8.30;;
20855;SDS011;63058;49.424;8.420;2024-01-30T11:58:55;10.60;;;8.15;;
20855;SDS011;63058;49.424;8.420;2024-01-30T12:01:20;9.98;;;8.05;;
20855;SDS011;63058;49.424;8.420;2024-01-30T12:03:50;9.20;;;7.30;;
20855;SDS011;63058;49.424;8.420;2024-01-30T12:06:15;11.10;;;8.23;;
20855;SDS011;63058;49.424;8.420;2024-01-30T12:08:41;9.75;;;7.78;;
20855;SDS011;63058;49.424;8.420;2024-01-30T12:11:07;10.25;;;7.90;;
20855;SDS011;63058;49.424;8.420;2024-01-30T12:13:33;10.65;;;7.82;;
20855;SDS011;63058;49.424;8.420;2024-01-30T12:15:59;9.93;;;7.50;;
20855;SDS011;63058;49.424;8.420;2024-01-30T12:18:25;10.43;;;7.63;;
20855;SDS011;63058;49.424;8.420;2024-01-30T12:20:58;9.90;;;7.45;;
20855;SDS011;63058;49.424;8.420;2024-01-30T12:23:24;9.38;;;7.20;;
20855;SDS011;63058;49.424;8.420;2024-01-30T12:25:52;8.00;;;6.90;;
20855;SDS011;63058;49.424;8.420;2024-01-30T12:28:18;8.48;;;6.70;;
20855;SDS011;63058;49.424;8.420;2024-01-30T12:30:44;11.98;;;7.50;;
20855;SDS011;63058;49.424;8.420;2024-01-30T12:33:09;10.23;;;7.20;;
20855;SDS011;63058;49.424;8.420;2024-01-30T12:35:45;7.95;;;6.32;;
20855;SDS011;63058;49.424;8.420;2024-01-30T12:38:12;9.32;;;7.10;;
20855;SDS011;63058;49.424;8.420;2024-01-30T12:40:38;9.65;;;6.75;;
20855;SDS011;63058;49.424;8.420;2024-01-30T12:43:04;9.00;;;6.78;;
20855;SDS011;63058;49.424;8.420;2024-01-30T12:45:29;8.05;;;6.22;;
20855;SDS011;63058;49.424;8.420;2024-01-30T12:47:55;8.68;;;6.72;;
20855;SDS011;63058;49.424;8.420;2024-01-30T12:50:20;8.23;;;6.22;;
20855;SDS011;63058;49.424;8.420;2024-01-30T12:52:47;6.97;;;5.75;;
20855;SDS011;63058;49.424;8.420;2024-01-30T12:55:13;11.82;;;6.13;;
20855;SDS011;63058;49.424;8.420;2024-01-30T12:57:38;7.85;;;5.95;;
20855;SDS011;63058;49.424;8.420;2024-01-30T13:00:04;8.80;;;5.93;;
20855;SDS011;63058;49.424;8.420;2024-01-30T13:02:33;9.02;;;5.70;;
20855;SDS011;63058;49.424;8.420;2024-01-30T13:05:02;6.97;;;5.95;;
20855;SDS011;63058;49.424;8.420;2024-01-30T13:07:28;8.18;;;6.20;;
20855;SDS011;63058;49.424;8.420;2024-01-30T13:09:54;9.10;;;6.35;;
20855;SDS011;63058;49.424;8.420;2024-01-30T13:12:20;7.00;;;5.38;;
20855;SDS011;63058;49.424;8.420;2024-01-30T13:14:45;7.55;;;5.75;;
20855;SDS011;63058;49.424;8.420;2024-01-30T13:17:11;8.98;;;6.15;;
20855;SDS011;63058;49.424;8.420;2024-01-30T13:19:36;8.50;;;5.32;;
20855;SDS011;63058;49.424;8.420;2024-01-30T13:22:02;6.10;;;5.28;;
20855;SDS011;63058;49.424;8.420;2024-01-30T13:24:28;7.93;;;5.32;;
20855;SDS011;63058;49.424;8.420;2024-01-30T13:26:54;8.05;;;5.28;;
20855;SDS011;63058;49.424;8.420;2024-01-30T13:29:19;6.65;;;5.10;;
20855;SDS011;63058;49.424;8.420;2024-01-30T13:31:45;6.82;;;5.10;;
20855;SDS011;63058;49.424;8.420;2024-01-30T13:34:11;7.45;;;5.18;;
20855;SDS011;63058;49.424;8.420;2024-01-30T13:36:38;5.35;;;4.15;;
20855;SDS011;63058;49.424;8.420;2024-01-30T13:39:04;5.40;;;4.25;;
20855;SDS011;63058;49.424;8.420;2024-01-30T13:41:33;7.68;;;5.15;;
20855;SDS011;63058;49.424;8.420;2024-01-30T13:43:59;5.88;;;4.72;;
20855;SDS011;63058;49.424;8.420;2024-01-30T13:46:24;6.47;;;5.05;;
20855;SDS011;63058;49.424;8.420;2024-01-30T13:48:50;7.93;;;4.97;;
20855;SDS011;63058;49.424;8.420;2024-01-30T13:51:16;5.78;;;4.38;;
20855;SDS011;63058;49.424;8.420;2024-01-30T13:53:42;5.80;;;4.35;;
20855;SDS011;63058;49.424;8.420;2024-01-30T13:56:07;7.85;;;4.80;;
20855;SDS011;63058;49.424;8.420;2024-01-30T13:58:33;6.65;;;4.80;;
20855;SDS011;63058;49.424;8.420;2024-01-30T14:01:01;9.50;;;5.00;;
20855;SDS011;63058;49.424;8.420;2024-01-30T14:03:26;8.02;;;4.75;;
20855;SDS011;63058;49.424;8.420;2024-01-30T14:05:52;6.85;;;4.80;;
20855;SDS011;63058;49.424;8.420;2024-01-30T14:08:18;6.32;;;4.93;;
20855;SDS011;63058;49.424;8.420;2024-01-30T14:10:46;7.50;;;5.25;;
20855;SDS011;63058;49.424;8.420;2024-01-30T14:13:15;6.35;;;5.53;;
20855;SDS011;63058;49.424;8.420;2024-01-30T14:15:40;11.68;;;6.20;;
20855;SDS011;63058;49.424;8.420;2024-01-30T14:18:06;6.03;;;5.18;;
20855;SDS011;63058;49.424;8.420;2024-01-30T14:20:33;7.65;;;5.40;;
20855;SDS011;63058;49.424;8.420;2024-01-30T14:22:59;7.40;;;5.75;;
20855;SDS011;63058;49.424;8.420;2024-01-30T14:25:25;6.72;;;5.82;;
20855;SDS011;63058;49.424;8.420;2024-01-30T14:27:51;7.57;;;5.57;;
20855;SDS011;63058;49.424;8.420;2024-01-30T14:30:17;8.50;;;5.75;;
20855;SDS011;63058;49.424;8.420;2024-01-30T14:32:42;7.53;;;5.13;;
20855;SDS011;63058;49.424;8.420;2024-01-30T14:35:09;7.35;;;5.15;;
20855;SDS011;63058;49.424;8.420;2024-01-30T14:37:35;6.85;;;4.95;;
20855;SDS011;63058;49.424;8.420;2024-01-30T14:40:02;10.18;;;5.30;;
20855;SDS011;63058;49.424;8.420;2024-01-30T14:42:28;7.20;;;5.25;;
20855;SDS011;63058;49.424;8.420;2024-01-30T14:44:56;9.25;;;5.63;;
20855;SDS011;63058;49.424;8.420;2024-01-30T14:47:22;6.35;;;4.88;;
20855;SDS011;63058;49.424;8.420;2024-01-30T14:49:48;6.57;;;4.82;;
20855;SDS011;63058;49.424;8.420;2024-01-30T14:52:14;6.80;;;4.93;;
20855;SDS011;63058;49.424;8.420;2024-01-30T14:54:39;7.50;;;4.65;;
20855;SDS011;63058;49.424;8.420;2024-01-30T14:57:05;8.43;;;5.00;;
20855;SDS011;63058;49.424;8.420;2024-01-30T14:59:31;7.10;;;5.07;;
20855;SDS011;63058;49.424;8.420;2024-01-30T15:01:57;9.75;;;4.90;;
20855;SDS011;63058;49.424;8.420;2024-01-30T15:04:22;6.32;;;4.90;;
20855;SDS011;63058;49.424;8.420;2024-01-30T15:06:48;6.88;;;4.55;;
20855;SDS011;63058;49.424;8.420;2024-01-30T15:09:14;8.20;;;5.18;;
20855;SDS011;63058;49.424;8.420;2024-01-30T15:11:41;6.60;;;4.57;;
20855;SDS011;63058;49.424;8.420;2024-01-30T15:14:08;8.77;;;4.80;;
20855;SDS011;63058;49.424;8.420;2024-01-30T15:16:34;7.28;;;4.60;;
20855;SDS011;63058;49.424;8.420;2024-01-30T15:19:00;6.82;;;4.95;;
20855;SDS011;63058;49.424;8.420;2024-01-30T15:21:26;7.88;;;4.47;;
20855;SDS011;63058;49.424;8.420;2024-01-30T15:23:51;6.97;;;4.70;;
20855;SDS011;63058;49.424;8.420;2024-01-30T15:26:17;8.40;;;4.15;;
20855;SDS011;63058;49.424;8.420;2024-01-30T15:28:42;5.68;;;4.20;;
20855;SDS011;63058;49.424;8.420;2024-01-30T15:31:08;6.32;;;4.65;;
20855;SDS011;63058;49.424;8.420;2024-01-30T15:33:33;7.43;;;4.85;;
20855;SDS011;63058;49.424;8.420;2024-01-30T15:35:59;6.72;;;4.45;;
20855;SDS011;63058;49.424;8.420;2024-01-30T15:38:26;7.68;;;5.05;;
20855;SDS011;63058;49.424;8.420;2024-01-30T15:40:52;5.63;;;4.30;;
20855;SDS011;63058;49.424;8.420;2024-01-30T15:43:18;8.55;;;5.57;;
20855;SDS011;63058;49.424;8.420;2024-01-30T15:45:43;6.38;;;4.80;;
20855;SDS011;63058;49.424;8.420;2024-01-30T15:48:09;7.47;;;5.10;;
20855;SDS011;63058;49.424;8.420;2024-01-30T15:50:34;6.72;;;4.72;;
20855;SDS011;63058;49.424;8.420;2024-01-30T15:53:00;6.60;;;4.85;;
20855;SDS011;63058;49.424;8.420;2024-01-30T15:55:25;8.20;;;5.13;;
20855;SDS011;63058;49.424;8.420;2024-01-30T15:57:51;8.95;;;5.05;;
20855;SDS011;63058;49.424;8.420;2024-01-30T16:00:17;5.40;;;4.20;;
20855;SDS011;63058;49.424;8.420;2024-01-30T16:02:42;6.57;;;4.90;;
20855;SDS011;63058;49.424;8.420;2024-01-30T16:05:08;6.72;;;4.68;;
20855;SDS011;63058;49.424;8.420;2024-01-30T16:07:40;7.07;;;5.45;;
20855;SDS011;63058;49.424;8.420;2024-01-30T16:10:05;7.93;;;4.70;;
20855;SDS011;63058;49.424;8.420;2024-01-30T16:12:34;6.20;;;4.53;;
20855;SDS011;63058;49.424;8.420;2024-01-30T16:15:00;8.18;;;5.13;;
20855;SDS011;63058;49.424;8.420;2024-01-30T16:17:26;6.53;;;4.88;;
20855;SDS011;63058;49.424;8.420;2024-01-30T16:19:52;8.23;;;4.95;;
20855;SDS011;63058;49.424;8.420;2024-01-30T16:22:18;6.93;;;4.57;;
20855;SDS011;63058;49.424;8.420;2024-01-30T16:24:43;6.57;;;4.38;;
20855;SDS011;63058;49.424;8.420;2024-01-30T16:27:09;7.55;;;5.20;;
20855;SDS011;63058;49.424;8.420;2024-01-30T16:29:35;6.70;;;5.25;;
20855;SDS011;63058;49.424;8.420;2024-01-30T16:32:01;7.05;;;5.40;;
20855;SDS011;63058;49.424;8.420;2024-01-30T16:34:27;7.45;;;5.47;;
20855;SDS011;63058;49.424;8.420;2024-01-30T16:36:52;8.13;;;5.38;;
20855;SDS011;63058;49.424;8.420;2024-01-30T16:39:18;7.55;;;5.32;;
20855;SDS011;63058;49.424;8.420;2024-01-30T16:41:44;8.50;;;5.40;;
20855;SDS011;63058;49.424;8.420;2024-01-30T16:44:09;8.05;;;5.32;;
20855;SDS011;63058;49.424;8.420;2024-01-30T16:46:35;9.52;;;5.20;;
20855;SDS011;63058;49.424;8.420;2024-01-30T16:49:02;7.15;;;5.20;;
20855;SDS011;63058;49.424;8.420;2024-01-30T16:51:28;7.47;;;5.32;;
20855;SDS011;63058;49.424;8.420;2024-01-30T16:53:54;7.20;;;5.10;;
20855;SDS011;63058;49.424;8.420;2024-01-30T16:56:19;8.02;;;5.20;;
20855;SDS011;63058;49.424;8.420;2024-01-30T16:58:45;6.93;;;5.25;;
20855;SDS011;63058;49.424;8.420;2024-01-30T17:01:10;6.93;;;4.60;;
20855;SDS011;63058;49.424;8.420;2024-01-30T17:03:36;7.93;;;5.18;;
20855;SDS011;63058;49.424;8.420;2024-01-30T17:06:02;6.70;;;4.78;;
20855;SDS011;63058;49.424;8.420;2024-01-30T17:08:31;7.60;;;5.25;;
20855;SDS011;63058;49.424;8.420;2024-01-30T17:10:57;7.78;;;5.45;;
20855;SDS011;63058;49.424;8.420;2024-01-30T17:13:24;8.10;;;5.93;;
20855;SDS011;63058;49.424;8.420;2024-01-30T17:15:49;8.52;;;5.72;;
20855;SDS011;63058;49.424;8.420;2024-01-30T17:18:15;10.88;;;6.47;;
20855;SDS011;63058;49.424;8.420;2024-01-30T17:20:41;12.70;;;6.00;;
20855;SDS011;63058;49.424;8.420;2024-01-30T17:23:06;10.13;;;5.40;;
20855;SDS011;63058;49.424;8.420;2024-01-30T17:25:33;7.65;;;5.65;;
20855;SDS011;63058;49.424;8.420;2024-01-30T17:27:59;8.20;;;5.45;;
20855;SDS011;63058;49.424;8.420;2024-01-30T17:30:24;7.63;;;5.68;;
20855;SDS011;63058;49.424;8.420;2024-01-30T17:32:50;9.52;;;6.20;;
20855;SDS011;63058;49.424;8.420;2024-01-30T17:35:16;7.15;;;5.60;;
20855;SDS011;63058;49.424;8.420;2024-01-30T17:37:42;9.52;;;6.03;;
20855;SDS011;63058;49.424;8.420;2024-01-30T17:40:07;8.88;;;6.13;;
20855;SDS011;63058;49.424;8.420;2024-01-30T17:42:34;9.30;;;6.10;;
20855;SDS011;63058;49.424;8.420;2024-01-30T17:45:00;10.23;;;5.85;;
20855;SDS011;63058;49.424;8.420;2024-01-30T17:47:27;8.98;;;6.70;;
20855;SDS011;63058;49.424;8.420;2024-01-30T17:49:52;8.95;;;6.30;;
20855;SDS011;63058;49.424;8.420;2024-01-30T17:52:18;8.13;;;6.22;;
20855;SDS011;63058;49.424;8.420;2024-01-30T17:54:44;8.55;;;6.15;;
20855;SDS011;63058;49.424;8.420;2024-01-30T17:57:09;8.80;;;6.60;;
20855;SDS011;63058;49.424;8.420;2024-01-30T17:59:36;8.65;;;6.53;;
20855;SDS011;63058;49.424;8.420;2024-01-30T18:02:02;8.57;;;6.32;;
20855;SDS011;63058;49.424;8.420;2024-01-30T18:04:28;9.95;;;6.47;;
20855;SDS011;63058;49.424;8.420;2024-01-30T18:06:53;9.77;;;7.18;;
20855;SDS011;63058;49.424;8.420;2024-01-30T18:09:23;10.25;;;6.70;;
20855;SDS011;63058;49.424;8.420;2024-01-30T18:11:50;8.45;;;6.40;;
20855;SDS011;63058;49.424;8.420;2024-01-30T18:14:16;9.10;;;6.90;;
20855;SDS011;63058;49.424;8.420;2024-01-30T18:16:41;10.68;;;8.00;;
20855;SDS011;63058;49.424;8.420;2024-01-30T18:19:07;11.82;;;8.85;;
20855;SDS011;63058;49.424;8.420;2024-01-30T18:21:33;11.63;;;8.65;;
20855;SDS011;63058;49.424;8.420;2024-01-30T18:23:59;12.63;;;8.35;;
20855;SDS011;63058;49.424;8.420;2024-01-30T18:26:25;12.00;;;9.60;;
20855;SDS011;63058;49.424;8.420;2024-01-30T18:28:54;12.88;;;9.70;;
20855;SDS011;63058;49.424;8.420;2024-01-30T18:31:23;16.35;;;9.77;;
20855;SDS011;63058;49.424;8.420;2024-01-30T18:33:49;11.85;;;8.88;;
20855;SDS011;63058;49.424;8.420;2024-01-30T18:36:19;12.73;;;9.20;;
20855;SDS011;63058;49.424;8.420;2024-01-30T18:38:46;12.73;;;8.57;;
20855;SDS011;63058;49.424;8.420;2024-01-30T18:41:14;10.07;;;7.60;;
20855;SDS011;63058;49.424;8.420;2024-01-30T18:43:40;9.43;;;7.18;;
20855;SDS011;63058;49.424;8.420;2024-01-30T18:46:07;12.20;;;8.48;;
20855;SDS011;63058;49.424;8.420;2024-01-30T18:48:33;11.05;;;8.18;;
20855;SDS011;63058;49.424;8.420;2024-01-30T18:50:59;13.00;;;9.32;;
20855;SDS011;63058;49.424;8.420;2024-01-30T18:53:25;12.18;;;9.55;;
20855;SDS011;63058;49.424;8.420;2024-01-30T18:55:51;12.52;;;9.45;;